sensor_id;sensor_type;location;lat;lon;timestamp;P1;durP1;ratioP1;P2;durP2;ratioP2
2940;SDS011;1480;51.456;6.670;2023-12-22T00:01:09;3.53;;;0.90;;
2940;SDS011;1480;51.456;6.670;2023-12-22T00:03:36;2.60;;;1.40;;
2940;SDS011;1480;51.456;6.670;2023-12-22T00:06:03;3.00;;;1.20;;
2940;SDS011;1480;51.456;6.670;2023-12-22T00:08:30;1.60;;;1.17;;
2940;SDS011;1480;51.456;6.670;2023-12-22T00:10:58;3.70;;;1.10;;
2940;SDS011;1480;51.456;6.670;2023-12-22T00:13:25;2.50;;;1.03;;
2940;SDS011;1480;51.456;6.670;2023-12-22T00:15:52;6.73;;;1.83;;
2940;SDS011;1480;51.456;6.670;2023-12-22T00:18:18;4.20;;;0.87;;
2940;SDS011;1480;51.456;6.670;2023-12-22T00:20:45;8.43;;;1.40;;
2940;SDS011;1480;51.456;6.670;2023-12-22T00:23:12;2.70;;;1.00;;
2940;SDS011;1480;51.456;6.670;2023-12-22T00:25:38;3.50;;;1.43;;
2940;SDS011;1480;51.456;6.670;2023-12-22T00:28:06;6.20;;;1.60;;
2940;SDS011;1480;51.456;6.670;2023-12-22T00:30:33;5.40;;;1.40;;
2940;SDS011;1480;51.456;6.670;2023-12-22T00:33:00;8.53;;;1.50;;
2940;SDS011;1480;51.456;6.670;2023-12-22T00:35:26;2.70;;;1.13;;
2940;SDS011;1480;51.456;6.670;2023-12-22T00:37:53;2.40;;;1.13;;
2940;SDS011;1480;51.456;6.670;2023-12-22T00:40:20;7.87;;;1.70;;
2940;SDS011;1480;51.456;6.670;2023-12-22T00:42:46;1.83;;;1.00;;
2940;SDS011;1480;51.456;6.670;2023-12-22T00:45:14;3.47;;;1.40;;
2940;SDS011;1480;51.456;6.670;2023-12-22T00:47:41;7.73;;;2.17;;
2940;SDS011;1480;51.456;6.670;2023-12-22T00:50:08;5.37;;;1.77;;
2940;SDS011;1480;51.456;6.670;2023-12-22T00:52:35;1.90;;;1.40;;
2940;SDS011;1480;51.456;6.670;2023-12-22T00:55:02;5.90;;;1.57;;
2940;SDS011;1480;51.456;6.670;2023-12-22T00:57:29;3.63;;;1.50;;
2940;SDS011;1480;51.456;6.670;2023-12-22T00:59:56;2.80;;;1.63;;
2940;SDS011;1480;51.456;6.670;2023-12-22T01:02:24;5.83;;;1.90;;
2940;SDS011;1480;51.456;6.670;2023-12-22T01:04:50;3.90;;;1.60;;
2940;SDS011;1480;51.456;6.670;2023-12-22T01:07:17;3.00;;;1.47;;
2940;SDS011;1480;51.456;6.670;2023-12-22T01:09:44;3.50;;;2.60;;
2940;SDS011;1480;51.456;6.670;2023-12-22T01:12:10;7.23;;;2.33;;
2940;SDS011;1480;51.456;6.670;2023-12-22T01:14:37;3.40;;;1.60;;
2940;SDS011;1480;51.456;6.670;2023-12-22T01:17:04;5.80;;;1.73;;
2940;SDS011;1480;51.456;6.670;2023-12-22T01:19:32;7.63;;;1.67;;
2940;SDS011;1480;51.456;6.670;2023-12-22T01:21:58;8.40;;;1.83;;
2940;SDS011;1480;51.456;6.670;2023-12-22T01:24:25;8.93;;;1.40;;
2940;SDS011;1480;51.456;6.670;2023-12-22T01:26:52;4.20;;;1.27;;
2940;SDS011;1480;51.456;6.670;2023-12-22T01:29:18;6.50;;;1.90;;
2940;SDS011;1480;51.456;6.670;2023-12-22T01:31:45;4.70;;;1.70;;
2940;SDS011;1480;51.456;6.670;2023-12-22T01:34:12;5.33;;;1.43;;
2940;SDS011;1480;51.456;6.670;2023-12-22T01:36:40;2.17;;;1.40;;
2940;SDS011;1480;51.456;6.670;2023-12-22T01:39:07;3.63;;;1.10;;
2940;SDS011;1480;51.456;6.670;2023-12-22T01:41:34;5.20;;;1.57;;
2940;SDS011;1480;51.456;6.670;2023-12-22T01:44:01;6.20;;;1.77;;
2940;SDS011;1480;51.456;6.670;2023-12-22T01:46:27;2.60;;;0.97;;
2940;SDS011;1480;51.456;6.670;2023-12-22T01:48:54;3.47;;;1.20;;
2940;SDS011;1480;51.456;6.670;2023-12-22T01:51:21;3.93;;;1.00;;
2940;SDS011;1480;51.456;6.670;2023-12-22T01:53:49;2.27;;;0.90;;
2940;SDS011;1480;51.456;6.670;2023-12-22T01:56:17;1.27;;;1.00;;
2940;SDS011;1480;51.456;6.670;2023-12-22T01:58:44;1.87;;;1.00;;
2940;SDS011;1480;51.456;6.670;2023-12-22T02:01:17;5.87;;;1.00;;
2940;SDS011;1480;51.456;6.670;2023-12-22T02:03:44;3.13;;;0.80;;
2940;SDS011;1480;51.456;6.670;2023-12-22T02:06:11;3.10;;;1.30;;
2940;SDS011;1480;51.456;6.670;2023-12-22T02:08:37;8.20;;;1.00;;
2940;SDS011;1480;51.456;6.670;2023-12-22T02:11:06;5.20;;;1.43;;
2940;SDS011;1480;51.456;6.670;2023-12-22T02:13:33;2.50;;;1.20;;
2940;SDS011;1480;51.456;6.670;2023-12-22T02:16:01;1.00;;;0.80;;
2940;SDS011;1480;51.456;6.670;2023-12-22T02:18:33;8.20;;;1.10;;
2940;SDS011;1480;51.456;6.670;2023-12-22T02:21:00;3.83;;;1.90;;
2940;SDS011;1480;51.456;6.670;2023-12-22T02:23:28;2.83;;;1.13;;
2940;SDS011;1480;51.456;6.670;2023-12-22T02:25:56;2.80;;;1.00;;
2940;SDS011;1480;51.456;6.670;2023-12-22T02:28:24;3.13;;;1.43;;
2940;SDS011;1480;51.456;6.670;2023-12-22T02:30:52;1.40;;;1.10;;
2940;SDS011;1480;51.456;6.670;2023-12-22T02:33:22;5.03;;;1.60;;
2940;SDS011;1480;51.456;6.670;2023-12-22T02:35:50;5.43;;;1.30;;
2940;SDS011;1480;51.456;6.670;2023-12-22T02:38:18;4.83;;;1.50;;
2940;SDS011;1480;51.456;6.670;2023-12-22T02:40:47;4.83;;;1.27;;
2940;SDS011;1480;51.456;6.670;2023-12-22T02:43:13;9.13;;;1.60;;
2940;SDS011;1480;51.456;6.670;2023-12-22T02:45:40;4.03;;;1.00;;
2940;SDS011;1480;51.456;6.670;2023-12-22T02:48:07;2.07;;;1.03;;
2940;SDS011;1480;51.456;6.670;2023-12-22T02:50:33;2.33;;;0.93;;
2940;SDS011;1480;51.456;6.670;2023-12-22T02:53:00;2.83;;;0.80;;
2940;SDS011;1480;51.456;6.670;2023-12-22T02:55:27;2.63;;;1.33;;
2940;SDS011;1480;51.456;6.670;2023-12-22T02:57:55;4.10;;;1.03;;
2940;SDS011;1480;51.456;6.670;2023-12-22T03:00:21;2.30;;;0.90;;
2940;SDS011;1480;51.456;6.670;2023-12-22T03:02:48;4.10;;;1.33;;
2940;SDS011;1480;51.456;6.670;2023-12-22T03:05:15;3.17;;;1.70;;
2940;SDS011;1480;51.456;6.670;2023-12-22T03:07:41;5.97;;;1.43;;
2940;SDS011;1480;51.456;6.670;2023-12-22T03:10:08;5.43;;;1.17;;
2940;SDS011;1480;51.456;6.670;2023-12-22T03:12:35;6.80;;;1.50;;
2940;SDS011;1480;51.456;6.670;2023-12-22T03:15:04;12.27;;;1.50;;
2940;SDS011;1480;51.456;6.670;2023-12-22T03:17:31;3.67;;;1.30;;
2940;SDS011;1480;51.456;6.670;2023-12-22T03:19:58;3.57;;;1.53;;
2940;SDS011;1480;51.456;6.670;2023-12-22T03:22:24;6.40;;;1.80;;
2940;SDS011;1480;51.456;6.670;2023-12-22T03:24:51;1.70;;;1.10;;
2940;SDS011;1480;51.456;6.670;2023-12-22T03:27:18;2.07;;;0.97;;
2940;SDS011;1480;51.456;6.670;2023-12-22T03:29:45;7.30;;;2.03;;
2940;SDS011;1480;51.456;6.670;2023-12-22T03:32:13;4.53;;;1.47;;
2940;SDS011;1480;51.456;6.670;2023-12-22T03:34:41;5.00;;;1.90;;
2940;SDS011;1480;51.456;6.670;2023-12-22T03:37:07;4.47;;;1.73;;
2940;SDS011;1480;51.456;6.670;2023-12-22T03:39:34;5.30;;;1.23;;
2940;SDS011;1480;51.456;6.670;2023-12-22T03:42:01;4.20;;;1.20;;
2940;SDS011;1480;51.456;6.670;2023-12-22T03:44:28;2.53;;;1.20;;
2940;SDS011;1480;51.456;6.670;2023-12-22T03:46:54;4.50;;;1.37;;
2940;SDS011;1480;51.456;6.670;2023-12-22T03:49:23;3.37;;;1.27;;
2940;SDS011;1480;51.456;6.670;2023-12-22T03:51:50;5.43;;;1.70;;
2940;SDS011;1480;51.456;6.670;2023-12-22T03:54:16;1.30;;;0.90;;
2940;SDS011;1480;51.456;6.670;2023-12-22T03:56:43;3.73;;;1.20;;
2940;SDS011;1480;51.456;6.670;2023-12-22T03:59:10;4.30;;;1.40;;
2940;SDS011;1480;51.456;6.670;2023-12-22T04:01:36;4.70;;;1.50;;
2940;SDS011;1480;51.456;6.670;2023-12-22T04:04:03;5.97;;;1.57;;
2940;SDS011;1480;51.456;6.670;2023-12-22T04:06:31;7.90;;;1.77;;
2940;SDS011;1480;51.456;6.670;2023-12-22T04:08:58;6.27;;;1.50;;
2940;SDS011;1480;51.456;6.670;2023-12-22T04:11:25;6.00;;;2.07;;
2940;SDS011;1480;51.456;6.670;2023-12-22T04:13:52;10.80;;;1.90;;
2940;SDS011;1480;51.456;6.670;2023-12-22T04:16:18;4.50;;;1.87;;
2940;SDS011;1480;51.456;6.670;2023-12-22T04:18:45;11.57;;;2.80;;
2940;SDS011;1480;51.456;6.670;2023-12-22T04:21:11;5.50;;;2.00;;
2940;SDS011;1480;51.456;6.670;2023-12-22T04:23:39;9.67;;;1.97;;
2940;SDS011;1480;51.456;6.670;2023-12-22T04:26:06;2.90;;;1.60;;
2940;SDS011;1480;51.456;6.670;2023-12-22T04:28:33;8.03;;;1.80;;
2940;SDS011;1480;51.456;6.670;2023-12-22T04:30:59;7.07;;;2.13;;
2940;SDS011;1480;51.456;6.670;2023-12-22T04:33:26;12.23;;;2.40;;
2940;SDS011;1480;51.456;6.670;2023-12-22T04:35:53;12.43;;;2.47;;
2940;SDS011;1480;51.456;6.670;2023-12-22T04:38:19;7.87;;;2.37;;
2940;SDS011;1480;51.456;6.670;2023-12-22T04:40:47;20.27;;;3.20;;
2940;SDS011;1480;51.456;6.670;2023-12-22T04:43:14;5.43;;;2.37;;
2940;SDS011;1480;51.456;6.670;2023-12-22T04:45:41;5.60;;;2.23;;
2940;SDS011;1480;51.456;6.670;2023-12-22T04:48:07;4.00;;;1.73;;
2940;SDS011;1480;51.456;6.670;2023-12-22T04:50:34;16.50;;;3.53;;
2940;SDS011;1480;51.456;6.670;2023-12-22T04:53:01;11.17;;;2.70;;
2940;SDS011;1480;51.456;6.670;2023-12-22T04:55:27;9.83;;;1.70;;
2940;SDS011;1480;51.456;6.670;2023-12-22T04:57:55;10.30;;;2.40;;
2940;SDS011;1480;51.456;6.670;2023-12-22T05:00:22;3.27;;;2.20;;
2940;SDS011;1480;51.456;6.670;2023-12-22T05:02:48;16.07;;;3.23;;
2940;SDS011;1480;51.456;6.670;2023-12-22T05:05:15;6.07;;;2.13;;
2940;SDS011;1480;51.456;6.670;2023-12-22T05:07:42;6.80;;;2.30;;
2940;SDS011;1480;51.456;6.670;2023-12-22T05:10:08;6.03;;;1.60;;
2940;SDS011;1480;51.456;6.670;2023-12-22T05:12:35;3.53;;;1.17;;
2940;SDS011;1480;51.456;6.670;2023-12-22T05:15:03;5.70;;;1.33;;
2940;SDS011;1480;51.456;6.670;2023-12-22T05:17:31;1.60;;;1.00;;
2940;SDS011;1480;51.456;6.670;2023-12-22T05:19:58;2.37;;;1.33;;
2940;SDS011;1480;51.456;6.670;2023-12-22T05:22:25;3.20;;;1.63;;
2940;SDS011;1480;51.456;6.670;2023-12-22T05:24:51;3.27;;;1.87;;
2940;SDS011;1480;51.456;6.670;2023-12-22T05:27:18;3.57;;;1.60;;
2940;SDS011;1480;51.456;6.670;2023-12-22T05:29:45;5.93;;;1.57;;
2940;SDS011;1480;51.456;6.670;2023-12-22T05:32:13;1.87;;;1.00;;
2940;SDS011;1480;51.456;6.670;2023-12-22T05:34:39;5.97;;;1.53;;
2940;SDS011;1480;51.456;6.670;2023-12-22T05:37:06;2.13;;;1.00;;
2940;SDS011;1480;51.456;6.670;2023-12-22T05:39:33;11.03;;;1.43;;
2940;SDS011;1480;51.456;6.670;2023-12-22T05:41:59;2.37;;;1.40;;
2940;SDS011;1480;51.456;6.670;2023-12-22T05:44:26;2.30;;;0.90;;
2940;SDS011;1480;51.456;6.670;2023-12-22T05:46:54;1.73;;;1.63;;
2940;SDS011;1480;51.456;6.670;2023-12-22T05:49:22;3.73;;;2.03;;
2940;SDS011;1480;51.456;6.670;2023-12-22T05:51:50;7.03;;;1.10;;
2940;SDS011;1480;51.456;6.670;2023-12-22T05:54:17;9.77;;;1.50;;
2940;SDS011;1480;51.456;6.670;2023-12-22T05:56:44;5.33;;;1.30;;
2940;SDS011;1480;51.456;6.670;2023-12-22T05:59:11;5.83;;;1.30;;
2940;SDS011;1480;51.456;6.670;2023-12-22T06:01:37;11.40;;;1.57;;
2940;SDS011;1480;51.456;6.670;2023-12-22T06:04:04;6.13;;;1.27;;
2940;SDS011;1480;51.456;6.670;2023-12-22T06:06:32;3.80;;;1.23;;
2940;SDS011;1480;51.456;6.670;2023-12-22T06:08:59;4.37;;;1.67;;
2940;SDS011;1480;51.456;6.670;2023-12-22T06:11:26;4.80;;;1.57;;
2940;SDS011;1480;51.456;6.670;2023-12-22T06:13:52;3.87;;;2.13;;
2940;SDS011;1480;51.456;6.670;2023-12-22T06:16:19;7.83;;;1.17;;
2940;SDS011;1480;51.456;6.670;2023-12-22T06:18:46;4.27;;;1.40;;
2940;SDS011;1480;51.456;6.670;2023-12-22T06:21:12;5.57;;;1.27;;
2940;SDS011;1480;51.456;6.670;2023-12-22T06:23:41;11.00;;;2.60;;
2940;SDS011;1480;51.456;6.670;2023-12-22T06:26:08;5.43;;;1.40;;
2940;SDS011;1480;51.456;6.670;2023-12-22T06:28:36;5.90;;;1.43;;
2940;SDS011;1480;51.456;6.670;2023-12-22T06:31:04;7.83;;;1.60;;
2940;SDS011;1480;51.456;6.670;2023-12-22T06:33:31;6.80;;;2.00;;
2940;SDS011;1480;51.456;6.670;2023-12-22T06:35:58;4.70;;;1.73;;
2940;SDS011;1480;51.456;6.670;2023-12-22T06:38:24;8.97;;;2.60;;
2940;SDS011;1480;51.456;6.670;2023-12-22T06:40:52;6.83;;;1.83;;
2940;SDS011;1480;51.456;6.670;2023-12-22T06:43:20;4.80;;;1.40;;
2940;SDS011;1480;51.456;6.670;2023-12-22T06:45:47;14.10;;;2.10;;
2940;SDS011;1480;51.456;6.670;2023-12-22T06:48:13;5.93;;;1.73;;
2940;SDS011;1480;51.456;6.670;2023-12-22T06:50:40;7.30;;;2.37;;
2940;SDS011;1480;51.456;6.670;2023-12-22T06:53:10;5.20;;;1.50;;
2940;SDS011;1480;51.456;6.670;2023-12-22T06:55:36;6.97;;;2.23;;
2940;SDS011;1480;51.456;6.670;2023-12-22T06:58:04;8.07;;;1.53;;
2940;SDS011;1480;51.456;6.670;2023-12-22T07:00:31;15.27;;;2.43;;
2940;SDS011;1480;51.456;6.670;2023-12-22T07:02:58;3.10;;;1.80;;
2940;SDS011;1480;51.456;6.670;2023-12-22T07:05:33;13.83;;;2.20;;
2940;SDS011;1480;51.456;6.670;2023-12-22T07:08:02;6.27;;;2.20;;
2940;SDS011;1480;51.456;6.670;2023-12-22T07:10:30;3.63;;;2.03;;
2940;SDS011;1480;51.456;6.670;2023-12-22T07:12:56;3.30;;;1.30;;
2940;SDS011;1480;51.456;6.670;2023-12-22T07:15:24;6.70;;;1.70;;
2940;SDS011;1480;51.456;6.670;2023-12-22T07:17:51;12.97;;;1.57;;
2940;SDS011;1480;51.456;6.670;2023-12-22T07:20:18;3.60;;;1.80;;
2940;SDS011;1480;51.456;6.670;2023-12-22T07:22:45;4.17;;;1.80;;
2940;SDS011;1480;51.456;6.670;2023-12-22T07:25:11;8.63;;;2.20;;
2940;SDS011;1480;51.456;6.670;2023-12-22T07:27:38;13.67;;;3.07;;
2940;SDS011;1480;51.456;6.670;2023-12-22T07:30:05;5.87;;;2.13;;
2940;SDS011;1480;51.456;6.670;2023-12-22T07:32:34;9.70;;;3.80;;
2940;SDS011;1480;51.456;6.670;2023-12-22T07:35:01;16.73;;;2.40;;
2940;SDS011;1480;51.456;6.670;2023-12-22T07:37:27;3.50;;;1.30;;
2940;SDS011;1480;51.456;6.670;2023-12-22T07:39:54;8.43;;;2.53;;
2940;SDS011;1480;51.456;6.670;2023-12-22T07:42:20;8.20;;;2.57;;
2940;SDS011;1480;51.456;6.670;2023-12-22T07:44:47;12.07;;;2.53;;
2940;SDS011;1480;51.456;6.670;2023-12-22T07:47:14;12.53;;;1.93;;
2940;SDS011;1480;51.456;6.670;2023-12-22T07:49:42;6.83;;;2.30;;
2940;SDS011;1480;51.456;6.670;2023-12-22T07:52:08;15.07;;;3.10;;
2940;SDS011;1480;51.456;6.670;2023-12-22T07:54:35;6.53;;;1.70;;
2940;SDS011;1480;51.456;6.670;2023-12-22T07:57:02;14.70;;;2.60;;
2940;SDS011;1480;51.456;6.670;2023-12-22T07:59:29;9.57;;;2.43;;
2940;SDS011;1480;51.456;6.670;2023-12-22T08:01:55;10.93;;;2.53;;
2940;SDS011;1480;51.456;6.670;2023-12-22T08:04:22;7.53;;;2.10;;
2940;SDS011;1480;51.456;6.670;2023-12-22T08:06:50;13.00;;;2.23;;
2940;SDS011;1480;51.456;6.670;2023-12-22T08:09:17;13.70;;;4.20;;
2940;SDS011;1480;51.456;6.670;2023-12-22T08:11:44;12.40;;;3.30;;
2940;SDS011;1480;51.456;6.670;2023-12-22T08:14:12;10.33;;;2.80;;
2940;SDS011;1480;51.456;6.670;2023-12-22T08:16:38;19.60;;;3.10;;
2940;SDS011;1480;51.456;6.670;2023-12-22T08:19:05;12.33;;;3.40;;
2940;SDS011;1480;51.456;6.670;2023-12-22T08:21:32;31.50;;;4.10;;
2940;SDS011;1480;51.456;6.670;2023-12-22T08:24:00;13.17;;;3.00;;
2940;SDS011;1480;51.456;6.670;2023-12-22T08:26:26;10.03;;;3.40;;
2940;SDS011;1480;51.456;6.670;2023-12-22T08:28:53;12.80;;;3.53;;
2940;SDS011;1480;51.456;6.670;2023-12-22T08:31:20;15.00;;;3.90;;
2940;SDS011;1480;51.456;6.670;2023-12-22T08:33:46;11.30;;;3.40;;
2940;SDS011;1480;51.456;6.670;2023-12-22T08:36:13;21.40;;;3.43;;
2940;SDS011;1480;51.456;6.670;2023-12-22T08:38:40;15.77;;;3.73;;
2940;SDS011;1480;51.456;6.670;2023-12-22T08:41:08;16.50;;;4.93;;
2940;SDS011;1480;51.456;6.670;2023-12-22T08:43:36;12.80;;;4.47;;
2940;SDS011;1480;51.456;6.670;2023-12-22T08:46:03;13.13;;;3.03;;
2940;SDS011;1480;51.456;6.670;2023-12-22T08:48:30;17.53;;;3.97;;
2940;SDS011;1480;51.456;6.670;2023-12-22T08:50:56;18.30;;;4.40;;
2940;SDS011;1480;51.456;6.670;2023-12-22T08:53:23;16.93;;;3.70;;
2940;SDS011;1480;51.456;6.670;2023-12-22T08:55:50;13.00;;;2.73;;
2940;SDS011;1480;51.456;6.670;2023-12-22T08:58:18;19.80;;;3.30;;
2940;SDS011;1480;51.456;6.670;2023-12-22T09:00:45;13.97;;;3.97;;
2940;SDS011;1480;51.456;6.670;2023-12-22T09:03:12;19.03;;;3.70;;
2940;SDS011;1480;51.456;6.670;2023-12-22T09:05:38;10.20;;;3.23;;
2940;SDS011;1480;51.456;6.670;2023-12-22T09:08:05;28.20;;;4.23;;
2940;SDS011;1480;51.456;6.670;2023-12-22T09:10:32;11.10;;;3.53;;
2940;SDS011;1480;51.456;6.670;2023-12-22T09:12:58;17.47;;;3.30;;
2940;SDS011;1480;51.456;6.670;2023-12-22T09:15:27;16.37;;;3.17;;
2940;SDS011;1480;51.456;6.670;2023-12-22T09:17:53;18.90;;;3.60;;
2940;SDS011;1480;51.456;6.670;2023-12-22T09:20:21;17.97;;;3.27;;
2940;SDS011;1480;51.456;6.670;2023-12-22T09:22:47;16.90;;;2.70;;
2940;SDS011;1480;51.456;6.670;2023-12-22T09:25:14;18.63;;;3.10;;
2940;SDS011;1480;51.456;6.670;2023-12-22T09:27:41;12.90;;;3.70;;
2940;SDS011;1480;51.456;6.670;2023-12-22T09:30:08;21.03;;;4.60;;
2940;SDS011;1480;51.456;6.670;2023-12-22T09:32:37;7.47;;;2.80;;
2940;SDS011;1480;51.456;6.670;2023-12-22T09:35:03;13.53;;;4.10;;
2940;SDS011;1480;51.456;6.670;2023-12-22T09:37:31;13.70;;;3.10;;
2940;SDS011;1480;51.456;6.670;2023-12-22T09:39:58;22.17;;;3.47;;
2940;SDS011;1480;51.456;6.670;2023-12-22T09:42:25;14.43;;;3.13;;
2940;SDS011;1480;51.456;6.670;2023-12-22T09:44:53;14.30;;;3.40;;
2940;SDS011;1480;51.456;6.670;2023-12-22T09:47:20;9.97;;;2.50;;
2940;SDS011;1480;51.456;6.670;2023-12-22T09:49:48;11.67;;;2.97;;
2940;SDS011;1480;51.456;6.670;2023-12-22T09:52:16;14.23;;;2.67;;
2940;SDS011;1480;51.456;6.670;2023-12-22T09:54:42;14.17;;;3.20;;
2940;SDS011;1480;51.456;6.670;2023-12-22T09:57:09;13.40;;;3.90;;
2940;SDS011;1480;51.456;6.670;2023-12-22T09:59:36;4.73;;;2.20;;
2940;SDS011;1480;51.456;6.670;2023-12-22T10:02:04;6.90;;;2.77;;
2940;SDS011;1480;51.456;6.670;2023-12-22T10:04:31;11.70;;;3.03;;
2940;SDS011;1480;51.456;6.670;2023-12-22T10:06:59;9.17;;;1.90;;
2940;SDS011;1480;51.456;6.670;2023-12-22T10:09:27;10.13;;;2.97;;
2940;SDS011;1480;51.456;6.670;2023-12-22T10:11:53;7.20;;;2.80;;
2940;SDS011;1480;51.456;6.670;2023-12-22T10:14:21;4.47;;;1.73;;
2940;SDS011;1480;51.456;6.670;2023-12-22T10:16:48;8.77;;;2.63;;
2940;SDS011;1480;51.456;6.670;2023-12-22T10:19:15;5.20;;;1.30;;
2940;SDS011;1480;51.456;6.670;2023-12-22T10:21:42;4.87;;;2.27;;
2940;SDS011;1480;51.456;6.670;2023-12-22T10:24:12;6.90;;;2.57;;
2940;SDS011;1480;51.456;6.670;2023-12-22T10:27:03;8.67;;;2.33;;
2940;SDS011;1480;51.456;6.670;2023-12-22T10:29:30;6.30;;;2.00;;
2940;SDS011;1480;51.456;6.670;2023-12-22T10:31:57;5.00;;;2.70;;
2940;SDS011;1480;51.456;6.670;2023-12-22T10:34:24;10.33;;;2.30;;
2940;SDS011;1480;51.456;6.670;2023-12-22T10:36:51;14.00;;;1.97;;
2940;SDS011;1480;51.456;6.670;2023-12-22T10:39:19;8.23;;;1.97;;
2940;SDS011;1480;51.456;6.670;2023-12-22T10:41:46;2.43;;;1.40;;
2940;SDS011;1480;51.456;6.670;2023-12-22T10:44:14;5.00;;;2.33;;
2940;SDS011;1480;51.456;6.670;2023-12-22T10:46:42;2.97;;;1.70;;
2940;SDS011;1480;51.456;6.670;2023-12-22T10:49:09;1.50;;;1.10;;
2940;SDS011;1480;51.456;6.670;2023-12-22T10:51:35;2.70;;;1.80;;
2940;SDS011;1480;51.456;6.670;2023-12-22T10:54:03;5.20;;;1.93;;
2940;SDS011;1480;51.456;6.670;2023-12-22T10:56:32;5.37;;;1.70;;
2940;SDS011;1480;51.456;6.670;2023-12-22T10:58:59;3.60;;;1.40;;
2940;SDS011;1480;51.456;6.670;2023-12-22T11:01:27;7.77;;;1.87;;
2940;SDS011;1480;51.456;6.670;2023-12-22T11:03:57;8.27;;;2.07;;
2940;SDS011;1480;51.456;6.670;2023-12-22T11:06:26;6.43;;;2.40;;
2940;SDS011;1480;51.456;6.670;2023-12-22T11:08:53;6.63;;;2.20;;
2940;SDS011;1480;51.456;6.670;2023-12-22T11:11:25;5.13;;;2.30;;
2940;SDS011;1480;51.456;6.670;2023-12-22T11:13:56;10.97;;;2.20;;
2940;SDS011;1480;51.456;6.670;2023-12-22T11:16:23;2.77;;;2.23;;
2940;SDS011;1480;51.456;6.670;2023-12-22T11:18:51;2.60;;;1.80;;
2940;SDS011;1480;51.456;6.670;2023-12-22T11:21:20;16.57;;;3.17;;
2940;SDS011;1480;51.456;6.670;2023-12-22T11:23:48;7.60;;;2.87;;
2940;SDS011;1480;51.456;6.670;2023-12-22T11:26:16;5.93;;;2.10;;
2940;SDS011;1480;51.456;6.670;2023-12-22T11:28:43;6.53;;;3.07;;
2940;SDS011;1480;51.456;6.670;2023-12-22T11:31:12;7.23;;;2.10;;
2940;SDS011;1480;51.456;6.670;2023-12-22T11:33:43;12.77;;;3.20;;
2940;SDS011;1480;51.456;6.670;2023-12-22T11:36:11;3.93;;;2.10;;
2940;SDS011;1480;51.456;6.670;2023-12-22T11:38:38;4.67;;;2.00;;
2940;SDS011;1480;51.456;6.670;2023-12-22T11:41:05;2.57;;;1.90;;
2940;SDS011;1480;51.456;6.670;2023-12-22T11:43:32;4.63;;;2.20;;
2940;SDS011;1480;51.456;6.670;2023-12-22T11:46:01;3.37;;;2.60;;
2940;SDS011;1480;51.456;6.670;2023-12-22T11:48:29;6.30;;;2.97;;
2940;SDS011;1480;51.456;6.670;2023-12-22T11:50:56;3.20;;;2.00;;
2940;SDS011;1480;51.456;6.670;2023-12-22T11:53:23;3.10;;;2.37;;
2940;SDS011;1480;51.456;6.670;2023-12-22T11:55:57;3.30;;;2.10;;
2940;SDS011;1480;51.456;6.670;2023-12-22T11:58:37;6.83;;;1.83;;
2940;SDS011;1480;51.456;6.670;2023-12-22T12:01:05;2.20;;;2.00;;
2940;SDS011;1480;51.456;6.670;2023-12-22T12:03:37;4.73;;;2.00;;
2940;SDS011;1480;51.456;6.670;2023-12-22T12:06:13;15.17;;;3.37;;
2940;SDS011;1480;51.456;6.670;2023-12-22T12:08:41;2.47;;;1.97;;
2940;SDS011;1480;51.456;6.670;2023-12-22T12:11:08;3.83;;;1.70;;
2940;SDS011;1480;51.456;6.670;2023-12-22T12:13:35;6.00;;;1.93;;
2940;SDS011;1480;51.456;6.670;2023-12-22T12:16:07;5.43;;;2.50;;
2940;SDS011;1480;51.456;6.670;2023-12-22T12:18:34;4.40;;;1.63;;
2940;SDS011;1480;51.456;6.670;2023-12-22T12:21:02;7.93;;;3.50;;
2940;SDS011;1480;51.456;6.670;2023-12-22T12:23:29;3.00;;;1.77;;
2940;SDS011;1480;51.456;6.670;2023-12-22T12:25:56;3.23;;;2.50;;
2940;SDS011;1480;51.456;6.670;2023-12-22T12:28:26;15.77;;;2.40;;
2940;SDS011;1480;51.456;6.670;2023-12-22T12:30:57;7.07;;;1.87;;
2940;SDS011;1480;51.456;6.670;2023-12-22T12:33:26;1.80;;;1.20;;
2940;SDS011;1480;51.456;6.670;2023-12-22T12:35:53;7.07;;;1.60;;
2940;SDS011;1480;51.456;6.670;2023-12-22T12:38:23;7.93;;;1.63;;
2940;SDS011;1480;51.456;6.670;2023-12-22T12:40:54;4.30;;;1.73;;
2940;SDS011;1480;51.456;6.670;2023-12-22T12:43:23;2.03;;;1.73;;
2940;SDS011;1480;51.456;6.670;2023-12-22T12:45:51;3.70;;;1.80;;
2940;SDS011;1480;51.456;6.670;2023-12-22T12:48:18;4.10;;;1.40;;
2940;SDS011;1480;51.456;6.670;2023-12-22T12:50:48;2.50;;;1.27;;
2940;SDS011;1480;51.456;6.670;2023-12-22T12:53:14;2.80;;;1.63;;
2940;SDS011;1480;51.456;6.670;2023-12-22T12:55:42;3.33;;;1.40;;
2940;SDS011;1480;51.456;6.670;2023-12-22T12:58:09;2.20;;;1.50;;
2940;SDS011;1480;51.456;6.670;2023-12-22T13:00:36;5.13;;;1.50;;
2940;SDS011;1480;51.456;6.670;2023-12-22T13:03:04;1.93;;;1.50;;
2940;SDS011;1480;51.456;6.670;2023-12-22T13:05:32;2.17;;;1.30;;
2940;SDS011;1480;51.456;6.670;2023-12-22T13:08:06;4.93;;;2.00;;
2940;SDS011;1480;51.456;6.670;2023-12-22T13:10:33;4.80;;;1.97;;
2940;SDS011;1480;51.456;6.670;2023-12-22T13:13:01;6.63;;;2.20;;
2940;SDS011;1480;51.456;6.670;2023-12-22T13:15:28;2.77;;;2.07;;
2940;SDS011;1480;51.456;6.670;2023-12-22T13:17:55;3.17;;;1.80;;
2940;SDS011;1480;51.456;6.670;2023-12-22T13:20:22;2.23;;;2.00;;
2940;SDS011;1480;51.456;6.670;2023-12-22T13:22:49;3.30;;;2.00;;
2940;SDS011;1480;51.456;6.670;2023-12-22T13:25:15;4.70;;;2.33;;
2940;SDS011;1480;51.456;6.670;2023-12-22T13:27:46;3.00;;;2.33;;
2940;SDS011;1480;51.456;6.670;2023-12-22T13:30:14;8.23;;;2.70;;
2940;SDS011;1480;51.456;6.670;2023-12-22T13:32:41;2.93;;;2.40;;
2940;SDS011;1480;51.456;6.670;2023-12-22T13:35:08;6.13;;;2.43;;
2940;SDS011;1480;51.456;6.670;2023-12-22T13:37:40;3.87;;;3.07;;
2940;SDS011;1480;51.456;6.670;2023-12-22T13:40:07;3.00;;;1.87;;
2940;SDS011;1480;51.456;6.670;2023-12-22T13:42:35;4.67;;;2.67;;
2940;SDS011;1480;51.456;6.670;2023-12-22T13:45:03;4.80;;;2.03;;
2940;SDS011;1480;51.456;6.670;2023-12-22T13:47:31;4.27;;;2.23;;
2940;SDS011;1480;51.456;6.670;2023-12-22T13:49:58;5.63;;;2.23;;
2940;SDS011;1480;51.456;6.670;2023-12-22T13:52:25;6.67;;;2.93;;
2940;SDS011;1480;51.456;6.670;2023-12-22T13:54:53;6.57;;;2.77;;
2940;SDS011;1480;51.456;6.670;2023-12-22T13:57:22;2.70;;;2.30;;
2940;SDS011;1480;51.456;6.670;2023-12-22T13:59:48;7.50;;;2.60;;
2940;SDS011;1480;51.456;6.670;2023-12-22T14:02:18;8.10;;;2.10;;
2940;SDS011;1480;51.456;6.670;2023-12-22T14:04:48;2.73;;;1.80;;
2940;SDS011;1480;51.456;6.670;2023-12-22T14:07:15;2.40;;;1.83;;
2940;SDS011;1480;51.456;6.670;2023-12-22T14:09:42;6.60;;;2.30;;
2940;SDS011;1480;51.456;6.670;2023-12-22T14:12:09;6.17;;;2.33;;
2940;SDS011;1480;51.456;6.670;2023-12-22T14:14:35;3.67;;;2.00;;
2940;SDS011;1480;51.456;6.670;2023-12-22T14:17:02;3.43;;;2.33;;
2940;SDS011;1480;51.456;6.670;2023-12-22T14:19:29;17.13;;;2.77;;
2940;SDS011;1480;51.456;6.670;2023-12-22T14:21:57;11.27;;;2.03;;
2940;SDS011;1480;51.456;6.670;2023-12-22T14:24:23;8.93;;;2.10;;
2940;SDS011;1480;51.456;6.670;2023-12-22T14:26:53;4.80;;;1.77;;
2940;SDS011;1480;51.456;6.670;2023-12-22T14:29:21;4.97;;;1.70;;
2940;SDS011;1480;51.456;6.670;2023-12-22T14:31:48;6.10;;;1.77;;
2940;SDS011;1480;51.456;6.670;2023-12-22T14:34:15;3.10;;;1.47;;
2940;SDS011;1480;51.456;6.670;2023-12-22T14:36:42;3.10;;;2.20;;
2940;SDS011;1480;51.456;6.670;2023-12-22T14:39:11;4.80;;;1.97;;
2940;SDS011;1480;51.456;6.670;2023-12-22T14:41:38;3.13;;;1.70;;
2940;SDS011;1480;51.456;6.670;2023-12-22T14:44:06;2.80;;;1.60;;
2940;SDS011;1480;51.456;6.670;2023-12-22T14:46:32;4.33;;;2.37;;
2940;SDS011;1480;51.456;6.670;2023-12-22T14:48:59;4.33;;;2.13;;
2940;SDS011;1480;51.456;6.670;2023-12-22T14:51:26;5.77;;;2.60;;
2940;SDS011;1480;51.456;6.670;2023-12-22T14:53:53;3.10;;;2.10;;
2940;SDS011;1480;51.456;6.670;2023-12-22T14:56:21;6.43;;;1.93;;
2940;SDS011;1480;51.456;6.670;2023-12-22T14:58:48;5.57;;;1.83;;
2940;SDS011;1480;51.456;6.670;2023-12-22T15:01:14;8.73;;;2.07;;
2940;SDS011;1480;51.456;6.670;2023-12-22T15:03:41;1.93;;;1.30;;
2940;SDS011;1480;51.456;6.670;2023-12-22T15:06:08;6.43;;;1.73;;
2940;SDS011;1480;51.456;6.670;2023-12-22T15:08:35;2.70;;;1.70;;
2940;SDS011;1480;51.456;6.670;2023-12-22T15:11:01;4.07;;;1.83;;
2940;SDS011;1480;51.456;6.670;2023-12-22T15:13:29;6.83;;;1.97;;